Date,TemperatureHighF,TemperatureAvgF,TemperatureLowF,DewpointHighF,DewpointAvgF,DewpointLowF,HumidityHigh,HumidityAvg,HumidityLow,PressureMaxIn,PressureMinIn,WindSpeedMaxMPH,WindSpeedAvgMPH,GustSpeedMaxMPH,PrecipitationSumIn
2013-1-1,57.7,53.3,47.5,52.7,49.3,43.2,96,87,76,30.14,29.93,4,2,16,0.06
2013-1-2,53.3,49.9,43.3,52.2,48.2,41.1,96,94,89,30.18,29.88,3,1,16,0.20
2013-1-3,43.1,40.5,30.9,40.9,38.4,29.4,95,92,89,30.25,30.11,1,0,5,0.07
2013-1-4,51.9,36.5,25.5,38.2,31.3,24.3,96,84,50,30.32,30.18,5,1,6,0.01
2013-1-5,50.7,36.3,24.1,38.1,30.5,22.6,100,82,47,30.39,30.26,2,0,4,0.00
2013-1-6,48.1,44.8,38.8,45.6,42.7,36.9,95,92,86,30.26,30.06,2,0,3,0.01
2013-1-7,55.8,44.1,30.7,43.9,37.2,29.4,96,79,51,30.39,30.14,3,1,6,0.01
2013-1-9,74.8,62.4,52.7,62.9,57.6,51.3,95,85,62,30.38,30.32,2,0,2,0.00
2013-1-10,70.2,56.5,45.1,56.2,49.5,41.9,97,79,52,30.48,30.38,3,0,5,0.00
2013-1-11,70.9,57.7,44.8,67.5,55.1,41.8,96,91,79,30.41,30.15,3,0,3,0.12
2013-1-12,78.7,63.2,53.9,68.6,60.2,53.0,97,91,67,30.16,30.08,3,1,4,0.01
2013-1-13,70.4,54.7,49.6,65.3,53.5,48.5,97,96,84,30.15,30.08,4,0,4,0.00
2013-2-2,50.0,41.8,24.7,39.2,28.4,15.8,90,62,35,30.40,30.04,6,2,6,0.00
2013-2-3,55.8,42.7,29.2,40.7,34.1,27.7,95,75,38,30.03,29.85,8,2,10,0.00
2013-2-4,50.0,37.1,23.3,34.8,29.2,21.8,95,76,44,30.14,29.98,3,1,4,0.00
2013-2-5,67.6,49.4,34.7,44.8,38.7,33.2,95,72,35,30.04,29.87,8,2,14,0.00
2013-2-6,69.3,49.1,34.8,51.4,40.7,33.5,96,77,38,30.22,29.97,3,0,4,0.00
2013-2-7,61.3,48.6,37.1,53.2,46.0,35.8,96,91,71,30.24,29.81,3,1,5,1.04
2013-2-8,59.4,51.6,42.5,52.2,47.7,40.6,96,87,68,29.99,29.57,7,3,7,0.58
2013-2-9,56.6,41.0,27.6,40.0,31.6,26.1,95,73,36,30.35,30.00,4,2,9,0.00
2013-2-10,58.2,41.6,24.4,47.7,34.8,22.9,95,80,39,30.46,30.26,4,1,6,0.00
2013-2-11,65.9,60.6,48.8,62.7,58.4,47.2,95,93,89,30.29,29.94,9,4,13,0.19
2013-2-12,66.8,57.7,52.0,59.0,51.3,42.3,95,81,41,30.07,29.92,5,1,6,0.06
2013-2-13,59.3,52.1,48.2,57.6,50.6,47.1,96,94,90,29.97,29.62,7,2,9,0.33
2013-2-14,54.5,45.2,34.8,47.8,40.2,33.5,96,84,58,30.07,29.79,3,1,4,0.00
2013-2-15,61.8,43.3,29.8,44.8,35.7,28.5,97,78,38,30.08,29.94,4,1,4,0.01
2013-2-16,53.2,38.9,32.6,43.3,36.0,31.3,96,90,67,29.94,29.72,5,1,6,0.21
2013-2-17,42.3,33.7,24.6,33.1,23.1,15.1,94,68,35,30.26,29.87,9,4,16,0.01
2013-2-18,54.8,33.9,18.0,28.9,22.3,16.1,94,69,23,30.43,30.27,7,1,7,0.00
2013-2-19,61.8,38.7,27.6,52.8,35.8,25.8,96,90,72,30.29,30.05,3,1,5,0.00
2013-2-21,59.7,45.0,35.8,35.6,32.5,28.0,89,67,30,30.22,30.08,3,0,9,0.00
2013-2-22,49.0,43.6,38.8,44.2,37.3,29.9,94,79,70,30.29,30.06,2,0,9,0.01
2013-2-23,48.2,45.5,42.7,47.0,44.2,41.4,96,95,94,30.05,29.81,3,1,9,0.52
2013-2-24,66.5,50.6,37.0,52.6,45.8,35.4,97,86,51,29.98,29.77,3,1,9,0.01
2013-2-25,46.2,40.4,33.8,39.6,34.0,32.3,96,79,60,30.17,29.99,2,1,9,0.00
2013-3-1,57.0,53.3,48.7,36.7,34.6,33.4,63,49,43,29.83,29.79,4,3,6,0.00
2013-3-26,33.9,32.5,31.1,28.7,28.0,27.4,86,83,81,29.88,29.86,1,1,7,0.00
2013-3-27,29.3,29.3,29.3,27.5,27.5,27.5,93,93,93,30.11,30.11,0,0,0,0.00
2013-4-3,57.8,57.4,57.1,35.9,35.3,34.8,45,44,42,30.19,30.19,1,0,1,0.00
2013-4-22,62.5,57.6,51.7,52.1,50.2,48.6,90,77,68,30.28,30.16,5,3,13,0.00
2013-4-23,69.4,57.1,48.8,56.1,51.4,47.2,94,82,59,30.18,30.10,4,2,13,0.00
2013-4-24,76.6,60.8,43.3,61.5,54.0,42.0,96,80,54,30.17,30.03,6,2,10,0.00
2013-4-25,74.7,65.1,62.3,62.5,60.6,58.9,93,86,62,30.17,30.04,3,1,10,0.00
2013-5-3,70.7,62.3,54.3,59.6,53.2,47.0,82,72,66,30.15,30.10,1,1,10,0.00
2013-5-4,70.7,59.7,50.8,59.3,53.8,47.9,91,81,64,30.12,30.00,3,2,10,0.00
2013-5-5,74.7,62.3,51.9,65.5,58.0,50.1,95,86,70,30.02,29.91,7,2,11,0.03
2013-5-6,78.2,65.2,55.7,66.6,60.8,53.7,96,87,59,29.93,29.82,7,2,10,0.24
2013-5-7,73.0,60.5,49.3,57.9,53.0,48.0,96,79,51,29.95,29.84,5,1,10,0.00
2013-5-8,77.9,63.9,48.9,60.7,55.4,47.5,97,77,49,30.00,29.92,5,1,10,0.00
2013-5-9,83.8,68.8,53.7,64.7,60.0,52.3,96,76,45,30.06,29.96,3,1,10,0.00
2013-5-10,87.2,70.7,55.9,67.8,61.6,54.5,97,76,47,30.07,29.98,6,2,10,0.00
2013-5-11,84.7,74.0,67.1,72.0,66.8,62.8,94,79,54,30.00,29.81,6,2,10,0.01
2013-5-12,82.0,71.1,59.0,67.8,61.1,52.8,94,73,40,29.96,29.77,4,1,10,0.04
2013-5-13,73.9,60.7,45.0,51.6,44.7,40.5,91,58,32,30.11,29.96,3,1,10,0.00
2013-5-14,74.5,56.3,37.8,50.3,42.7,36.2,95,67,31,30.24,30.11,4,1,10,0.00
2013-5-15,50.5,50.0,49.5,48.4,47.6,46.8,94,92,89,30.13,30.10,0,0,10,0.00
2013-5-16,90.8,81.5,71.3,67.1,65.2,61.7,81,60,40,29.98,29.90,3,2,7,0.00
2013-5-17,90.7,76.0,62.9,69.6,64.9,61.1,95,72,41,30.08,29.98,3,1,7,0.00
2013-5-18,86.7,72.7,61.8,71.1,65.6,59.5,95,80,53,30.15,30.07,4,1,9,0.00
2013-5-19,80.0,70.9,62.9,72.5,66.9,61.4,96,88,72,30.14,30.07,4,1,7,0.03
2013-5-20,79.1,71.6,68.3,72.0,68.8,66.8,95,91,72,30.14,30.04,6,1,9,0.33
2013-5-21,79.9,72.2,67.4,74.4,69.6,65.6,96,91,80,30.06,29.97,4,1,7,0.17
2013-5-22,84.0,74.1,63.8,74.6,68.7,62.4,96,84,64,30.03,29.94,7,2,10,0.02
2013-5-23,84.3,73.4,67.9,72.8,69.5,66.4,96,88,62,29.97,29.83,4,1,9,0.05
2013-5-24,79.6,68.6,50.1,68.5,60.1,46.7,97,77,46,30.14,29.77,4,1,6,0.00
2013-5-25,76.7,58.2,40.1,55.1,46.3,38.5,95,70,34,30.27,30.11,3,1,5,0.00
2013-5-26,70.7,58.1,47.9,57.4,51.7,46.5,96,81,52,30.24,30.13,1,0,5,0.00
2013-5-27,82.1,63.1,42.9,61.4,51.3,41.6,96,71,33,30.26,30.18,4,1,5,0.00
2013-5-28,83.2,68.2,52.0,68.3,61.1,50.6,96,80,58,30.25,30.18,5,1,7,0.00
2013-5-29,84.7,71.2,57.5,71.1,63.7,56.1,96,79,54,30.25,30.18,4,1,7,0.00
2013-5-30,86.3,72.3,56.0,73.9,66.0,54.6,97,82,62,30.26,30.18,5,2,7,0.00
2013-5-31,85.9,72.7,61.1,74.0,67.5,59.7,96,85,61,30.22,30.12,4,1,5,0.05
2013-6-1,88.8,74.4,61.4,72.9,66.6,60.0,97,79,54,30.16,30.05,6,2,7,0.00
2013-6-2,88.2,75.1,61.3,72.9,67.6,60.2,97,80,53,30.09,29.93,6,2,7,0.00
2013-6-3,82.6,72.0,67.7,75.4,70.0,66.2,96,93,79,29.96,29.84,5,1,6,1.63
2013-6-4,86.7,74.0,65.4,75.0,69.7,64.2,97,87,63,30.07,29.90,5,1,6,0.01
2013-6-5,84.0,74.1,64.8,68.3,66.1,63.2,95,78,53,30.09,30.00,5,1,10,0.00
2013-6-6,79.4,73.9,68.4,74.5,71.0,66.0,95,91,79,30.02,29.84,5,2,10,0.25
2013-6-7,80.5,75.9,71.4,75.2,72.8,69.3,96,90,82,29.84,29.53,11,5,17,2.23
2013-6-8,89.4,80.3,73.1,77.2,73.9,71.6,95,82,62,30.08,29.83,5,2,8,0.01
2013-6-9,86.9,77.2,70.9,77.3,73.5,69.6,96,89,71,30.14,30.07,3,0,6,2.17
2013-6-10,86.6,76.8,70.5,77.4,72.7,69.0,97,88,69,30.12,29.94,6,2,6,0.42
2013-6-11,85.6,76.4,70.9,75.8,72.4,69.5,96,88,71,29.99,29.87,4,1,4,0.04
2013-6-12,91.0,81.0,65.8,77.1,73.0,64.6,97,79,55,29.97,29.87,3,0,5,0.00
2013-6-13,96.6,84.2,69.7,80.9,74.7,67.3,96,75,50,29.86,29.62,7,2,13,0.73
2013-6-14,83.0,72.8,61.9,69.3,64.5,60.2,96,78,48,29.99,29.68,3,1,7,0.11
2013-6-15,86.8,69.8,55.3,67.4,59.6,53.9,97,74,39,30.10,30.00,3,0,6,0.00
2013-6-16,74.0,65.0,60.3,67.0,62.2,58.9,96,91,76,30.14,30.05,1,0,1,0.00
2013-6-17,87.8,72.4,63.6,74.9,68.7,62.1,96,89,61,30.07,29.96,3,1,3,0.13
2013-6-18,87.7,77.9,69.8,77.6,72.8,68.3,96,85,69,29.99,29.79,5,1,9,0.06
2013-6-19,78.7,73.1,69.7,73.7,70.5,67.9,96,92,78,30.07,29.84,1,0,3,0.19
2013-6-20,87.5,73.2,63.2,70.4,64.7,57.8,96,77,46,30.18,30.07,2,0,5,0.00
2013-6-21,84.4,70.6,61.5,73.5,66.5,57.7,96,88,68,30.18,30.12,5,0,5,0.24
2013-6-22,80.7,74.0,69.7,76.6,71.9,68.5,97,93,83,30.15,30.08,4,1,6,0.88
2013-6-23,84.2,74.4,67.7,77.5,72.0,66.5,97,93,75,30.20,30.14,8,1,10,1.05
2013-6-24,84.6,74.1,70.7,78.0,72.4,69.8,97,95,78,30.22,30.10,3,0,10,0.48
2013-6-25,90.6,77.9,70.3,77.9,73.6,69.1,97,88,64,30.13,30.02,4,1,10,0.36
2013-6-26,89.9,77.3,70.4,78.3,73.3,69.1,97,88,65,30.03,29.93,4,1,11,0.12
2013-6-27,88.4,76.7,68.2,80.4,73.7,67.0,97,91,77,29.93,29.75,4,2,10,1.01
2013-6-28,89.8,82.9,76.4,80.6,77.9,75.4,97,85,71,29.72,29.61,4,2,10,0.51
2013-6-29,84.9,78.6,73.3,77.1,74.9,71.9,96,89,75,29.77,29.61,6,2,10,0.23
2013-6-30,83.7,76.6,71.6,77.4,74.2,70.4,97,93,78,29.88,29.73,5,2,10,2.40
2013-7-1,80.3,75.8,73.2,76.4,74.1,72.0,96,94,87,30.05,29.84,5,2,10,0.52
2013-7-2,83.4,76.4,72.2,78.2,74.2,71.0,96,93,81,30.18,30.03,3,1,10,0.47
2013-7-3,85.3,79.2,73.5,79.2,75.3,72.3,97,88,75,30.25,30.16,6,2,11,0.21
2013-7-4,86.9,78.7,70.0,76.8,73.5,68.8,97,85,68,30.26,30.20,5,2,9,0.01
2013-7-5,86.5,77.5,69.8,78.6,73.4,68.6,97,88,72,30.27,30.17,4,1,6,0.38
2013-7-6,87.6,76.7,67.8,77.9,72.0,66.6,98,86,65,30.24,30.14,5,1,10,0.02
2013-7-7,89.0,78.0,66.6,76.5,71.5,65.4,97,82,62,30.19,30.08,4,1,10,0.00
2013-7-8,89.5,78.2,68.8,78.1,72.6,67.5,97,84,64,30.17,30.09,2,1,3,0.00
2013-7-9,88.9,79.1,72.1,77.4,74.0,70.6,96,85,67,30.17,30.08,3,1,7,0.17
2013-7-10,89.6,80.4,71.9,77.3,73.7,70.2,96,82,53,30.12,29.99,4,1,7,0.00
2013-7-14,87.7,82.0,73.2,77.2,75.0,71.7,95,80,66,30.25,30.20,5,2,9,0.11
2013-7-15,90.2,79.0,71.6,78.7,73.6,70.1,97,85,60,30.26,30.21,3,1,4,0.00
2013-7-16,93.0,80.1,67.8,79.4,73.2,66.6,97,81,55,30.25,30.15,2,0,3,0.00
2013-7-17,91.0,80.0,73.0,81.1,75.7,71.7,96,87,69,30.19,30.09,2,0,4,0.27
2013-7-18,92.1,80.5,70.5,77.7,73.7,69.3,97,82,56,30.12,30.04,3,0,7,0.00
2013-7-19,90.6,80.3,72.1,79.8,74.8,70.9,97,84,67,30.11,30.00,4,1,6,0.00
2013-7-20,88.6,79.7,73.2,77.5,74.2,71.7,96,84,68,30.05,29.95,5,2,7,0.00
2013-7-21,86.4,77.9,72.3,77.9,73.9,70.1,94,88,75,30.01,29.91,4,1,5,0.00
2013-7-22,89.5,80.2,72.8,79.7,75.5,71.6,97,86,68,29.95,29.84,3,1,9,0.00
2013-7-23,88.6,79.8,74.1,77.8,75.1,72.3,95,86,66,29.88,29.73,3,1,6,0.00
2013-7-24,90.9,80.6,72.1,79.9,75.4,70.9,97,85,66,29.79,29.72,4,1,4,0.00
2013-7-25,86.3,77.3,70.5,76.6,72.6,69.3,96,86,71,29.97,29.75,2,1,6,0.00
2013-7-26,87.8,76.0,66.3,75.1,70.2,65.1,97,84,59,30.07,29.98,2,0,4,0.00
2013-7-27,88.0,76.2,64.9,76.1,71.0,63.7,98,85,66,30.03,29.93,4,1,6,0.00
2013-7-28,88.6,78.0,69.3,78.5,73.7,68.1,97,87,67,30.00,29.88,3,0,4,0.00
2013-7-29,88.2,76.7,71.9,80.5,74.0,70.7,97,92,75,30.10,29.99,2,0,6,0.00
2013-7-30,88.7,76.5,67.7,78.2,72.5,66.8,98,88,65,30.17,30.09,1,0,2,0.00
2013-7-31,85.5,76.8,69.3,76.7,72.4,68.1,97,87,67,30.12,30.01,3,1,4,0.00
2013-8-1,84.9,75.6,71.7,77.3,73.3,70.5,97,93,78,30.00,29.88,2,0,3,0.04
2013-8-2,89.8,79.1,72.8,80.8,75.5,71.9,97,89,67,30.01,29.90,2,0,5,0.18
2013-8-3,89.7,80.4,73.9,80.7,76.0,72.9,97,87,65,30.03,29.90,3,1,4,0.00
2013-8-4,89.8,78.0,66.6,78.5,72.7,65.1,97,85,63,29.99,29.86,3,0,6,0.00
2013-8-5,86.5,73.3,60.8,69.9,65.1,59.7,97,78,52,30.06,29.98,3,1,4,0.00
2013-8-6,82.6,72.3,61.8,72.2,67.2,60.6,97,85,66,30.05,29.98,3,0,5,0.00
2013-8-7,88.4,75.4,64.4,74.0,69.1,63.2,98,83,57,30.08,30.01,3,1,5,0.00
2013-8-8,90.9,77.0,67.6,78.6,73.0,66.4,98,89,60,30.05,29.99,4,0,5,0.68
2013-8-9,90.5,80.8,72.3,80.0,76.0,71.4,97,86,68,30.07,30.00,3,1,4,0.00
2013-8-10,93.2,82.4,74.3,81.9,76.9,73.4,97,84,64,30.09,30.00,3,1,4,0.00
2013-8-11,92.6,81.1,74.4,80.6,76.7,73.5,97,87,62,30.10,29.99,5,1,6,0.00
2013-8-12,94.8,82.7,75.9,80.8,77.4,73.9,97,85,62,30.04,29.92,2,1,6,0.00
2013-8-13,91.9,83.0,74.7,80.8,77.1,73.5,96,84,66,29.88,29.77,3,1,10,0.13
2013-8-14,79.5,72.9,65.6,75.3,70.6,63.9,98,93,82,30.03,29.79,3,1,5,0.11
2013-8-15,71.3,65.4,62.2,67.9,63.9,61.3,97,95,85,30.10,30.01,2,0,5,1.06
2013-8-16,73.5,67.2,65.1,70.4,66.0,63.9,97,96,90,30.09,30.03,1,0,2,0.00
2013-8-18,80.9,76.9,74.0,76.7,74.8,72.8,96,94,87,30.14,30.10,0,0,0,0.00
2013-8-19,83.4,75.3,71.5,77.7,73.7,70.6,98,95,82,30.14,30.05,2,0,2,0.14
2013-8-20,86.3,75.4,71.8,80.2,74.0,70.9,98,96,81,30.15,30.07,2,0,2,1.81
2013-8-21,89.3,78.4,70.2,79.8,74.6,69.6,98,89,71,30.20,30.09,3,1,7,0.01
2013-8-22,87.1,74.8,69.2,79.0,72.5,68.4,98,93,75,30.13,29.99,2,0,5,0.26
2013-8-23,89.8,78.1,68.9,80.0,74.0,68.3,99,88,67,30.01,29.90,2,0,6,0.00
2013-8-24,82.4,73.5,65.9,71.8,68.7,64.4,97,86,62,30.23,29.99,3,1,5,0.00
2013-8-25,81.5,69.9,61.1,69.1,64.5,60.2,98,85,59,30.31,30.22,2,1,4,0.00
2013-8-26,84.6,70.2,58.9,68.1,63.0,58.1,98,81,46,30.26,30.10,1,0,4,0.00
2013-8-27,85.6,72.3,60.4,72.0,66.3,59.5,98,83,58,30.11,29.96,2,0,4,0.00
2013-8-28,89.2,76.5,66.5,78.9,72.0,64.8,96,87,69,29.99,29.89,2,0,3,0.00
2013-8-29,90.7,79.3,70.4,79.8,73.8,68.6,94,84,67,29.96,29.84,2,1,5,0.00
2013-8-30,86.6,74.3,66.9,75.7,70.0,65.7,97,87,67,30.02,29.93,3,0,4,0.00
2013-8-31,91.1,76.5,64.8,78.2,71.3,63.6,98,86,61,29.96,29.86,3,0,4,0.00
2013-9-1,91.0,79.9,72.1,78.3,75.1,70.9,98,86,64,29.92,29.81,4,1,5,0.00
2013-9-2,91.5,80.5,72.8,80.7,75.8,71.3,97,87,64,29.89,29.78,3,1,6,0.51
2013-9-3,86.6,77.4,68.2,78.1,74.1,67.0,97,90,73,29.92,29.79,2,0,6,0.12
2013-9-4,89.4,76.8,66.7,77.0,71.9,65.8,98,86,66,30.05,29.91,3,1,9,0.00
2013-9-5,90.7,78.2,70.7,78.3,73.6,69.5,98,87,59,30.07,29.98,1,0,2,0.00
2013-9-6,88.6,74.9,63.9,75.6,69.5,63.0,97,85,59,30.08,30.01,1,0,5,0.01
2013-9-7,85.8,71.6,61.4,67.8,63.7,60.0,96,79,44,30.08,29.95,1,0,3,0.00
2013-9-8,88.2,72.5,58.6,74.5,67.1,57.8,98,85,59,29.98,29.86,2,0,4,0.00
2013-9-9,88.7,75.4,64.5,76.0,69.5,63.6,98,84,59,30.13,29.96,4,1,5,0.00
2013-9-10,90.6,74.7,63.7,75.3,68.7,62.8,98,84,54,30.21,30.13,4,0,4,0.00
2013-9-11,88.3,73.3,63.3,75.4,68.2,62.1,98,86,61,30.19,30.07,3,0,4,0.00
2013-9-12,65.4,64.5,63.9,64.2,63.4,62.8,97,96,96,30.08,30.03,0,0,0,0.00
2013-9-14,80.0,71.2,63.1,66.6,63.5,58.7,94,78,61,30.09,29.85,3,1,4,0.00
2013-9-15,84.2,70.4,60.4,70.8,65.1,59.3,98,85,62,30.19,30.09,3,0,7,0.00
2013-9-16,86.2,71.9,62.3,76.9,68.9,61.1,98,91,71,30.12,30.00,2,0,3,0.46
2013-9-17,79.8,68.3,59.0,66.8,62.1,55.4,94,82,59,30.24,30.11,2,0,4,0.00
2013-9-18,79.3,63.8,52.8,65.6,58.0,51.1,94,83,54,30.24,30.12,2,0,4,0.00
2013-9-19,80.1,65.5,54.9,62.7,58.2,53.8,97,80,48,30.16,30.07,2,0,5,0.00
2013-9-20,71.6,64.5,57.1,67.2,62.5,56.0,97,93,86,30.09,29.95,1,0,1,0.05
2013-9-21,77.6,70.4,65.6,74.3,68.8,64.4,98,95,85,29.94,29.72,3,0,3,0.96
2013-9-22,73.2,70.2,63.7,71.4,68.8,62.2,97,95,92,29.84,29.64,2,0,5,0.73
2013-9-23,77.1,63.8,54.1,62.4,58.5,52.7,97,85,55,30.05,29.85,3,0,4,0.01
2013-9-24,77.0,61.5,48.7,62.3,55.4,47.6,98,83,52,30.08,29.94,2,0,4,0.00
2013-9-25,75.2,62.2,50.5,65.4,58.4,49.4,98,88,70,29.94,29.83,1,0,3,0.00
2013-9-26,76.1,64.7,60.5,64.0,61.1,59.4,97,89,59,29.89,29.82,2,0,5,0.13
2013-10-3,84.1,72.3,55.7,69.0,64.5,54.8,98,79,55,30.13,30.07,3,1,3,0.00
2013-10-4,86.4,69.9,58.9,72.2,64.8,58.1,98,86,57,30.13,30.04,2,0,3,0.00
2013-10-5,87.1,70.7,59.6,73.5,64.6,58.5,98,84,52,30.11,30.03,2,0,5,0.00
2013-10-6,82.0,69.5,61.0,74.8,67.9,59.9,98,95,74,30.05,29.94,5,1,5,0.79
2013-10-7,80.7,73.2,67.5,75.4,71.4,66.9,98,94,80,29.93,29.83,6,1,6,0.04
2013-10-8,71.6,62.3,57.2,70.7,61.4,56.1,98,97,95,30.08,29.87,4,2,12,0.05
2013-10-9,63.0,59.9,57.6,60.9,58.5,56.8,97,95,91,30.05,29.94,4,3,11,0.01
2013-10-10,58.2,57.6,57.0,57.1,56.7,56.2,97,97,96,29.94,29.90,2,2,5,0.00
2013-10-15,70.1,66.8,65.0,64.5,63.9,63.4,95,91,82,30.02,29.99,2,1,3,0.00
2013-10-16,73.6,67.3,60.6,68.0,64.6,59.2,97,91,79,30.00,29.93,1,0,2,0.02
2013-10-17,80.1,66.7,55.9,69.2,62.9,55.1,98,88,68,29.96,29.85,2,0,3,0.06
2013-10-18,75.2,67.5,63.9,67.9,65.0,62.6,97,92,76,29.99,29.87,1,0,2,0.03
2013-10-19,74.2,68.8,65.5,72.4,67.8,64.5,98,97,92,29.93,29.82,0,0,1,1.89
2013-10-20,69.6,61.0,51.1,64.4,56.7,50.0,97,87,57,30.08,29.88,2,0,5,0.06
2013-10-21,70.0,57.3,47.4,59.4,53.2,46.6,98,88,62,30.12,30.00,1,0,2,0.00
2013-10-22,66.4,58.4,54.2,61.8,56.4,53.2,97,93,84,29.99,29.87,0,0,0,0.00
2013-10-23,70.6,61.0,47.9,62.3,53.3,42.8,98,77,54,29.95,29.67,4,2,9,0.13
2013-10-24,61.7,46.5,36.1,47.5,40.5,34.8,97,82,46,30.15,29.95,3,1,3,0.00
2013-10-25,59.7,47.4,34.3,44.3,39.3,32.8,97,77,41,30.34,30.14,4,1,5,0.00
2013-10-26,64.4,44.2,30.7,45.0,37.2,29.4,98,80,45,30.33,30.10,3,0,6,0.00
2013-10-27,69.2,50.8,37.8,53.5,44.3,36.8,98,81,47,30.13,30.04,1,0,1,0.00
2013-10-28,71.2,54.8,42.1,61.5,51.4,41.0,100,89,63,30.23,30.12,3,0,4,0.00
2013-10-29,77.0,58.5,46.5,63.4,54.4,45.7,98,87,57,30.29,30.21,2,0,2,0.00
2013-10-30,76.7,59.9,47.1,63.1,55.2,46.3,98,86,57,30.30,30.16,2,0,2,0.00
2013-10-31,75.3,55.8,49.2,69.4,54.2,48.1,98,94,80,30.20,30.11,1,0,1,0.00
2013-11-1,79.9,74.2,70.0,72.5,69.7,68.2,95,86,74,29.87,29.72,3,2,7,0.05
2013-11-2,71.2,64.3,53.3,69.7,62.0,51.9,97,92,75,29.88,29.68,2,0,3,0.60
2013-11-3,65.0,51.1,41.4,51.1,44.7,40.1,97,81,44,30.30,29.88,3,0,4,0.01
2013-11-4,61.3,45.8,35.0,45.7,39.7,34.0,97,81,48,30.46,30.32,2,0,4,0.00
2013-11-5,71.4,55.4,41.6,62.4,51.6,39.2,95,88,70,30.44,30.35,2,0,4,0.01
2013-11-6,75.3,61.8,50.6,66.0,58.4,49.2,97,89,72,30.35,30.09,4,0,4,0.09
2013-11-7,71.6,64.9,52.9,66.5,62.9,47.6,98,93,82,30.08,29.89,2,0,4,0.41
2013-11-8,59.4,47.2,33.8,46.2,37.7,32.3,95,72,42,30.30,30.03,3,1,4,0.00
2013-11-9,63.2,46.6,31.2,51.5,41.2,29.9,97,84,53,30.35,30.20,2,0,3,0.01
2013-11-10,68.6,52.6,42.4,51.9,46.3,41.1,97,82,48,30.21,30.07,2,0,4,0.00
2013-11-11,62.2,47.8,35.9,47.2,39.6,34.6,100,76,47,30.30,30.15,2,0,3,0.00
2013-11-12,67.2,47.3,34.7,49.8,38.1,27.8,98,73,43,30.36,29.99,5,2,10,0.00
2013-11-13,47.0,36.1,25.8,31.2,25.7,22.0,93,69,37,30.49,30.33,5,1,5,0.04
2013-11-14,57.2,36.9,21.7,36.1,26.8,19.7,95,73,30,30.50,30.34,2,0,2,0.01
2013-11-15,69.2,50.3,30.6,55.8,45.3,29.1,97,85,58,30.35,30.19,4,1,6,0.00
2013-11-16,74.7,61.3,54.2,64.8,58.1,53.1,98,90,67,30.22,30.15,2,0,3,0.00
2013-11-17,76.8,64.2,55.1,67.9,61.6,54.5,98,92,72,30.18,29.95,4,1,8,0.02
2013-11-18,81.4,70.0,57.0,71.3,66.2,46.9,97,88,67,29.94,29.75,3,1,6,0.00
2013-11-19,59.4,48.6,36.9,47.0,37.2,34.0,93,68,39,30.25,29.89,3,1,7,0.00
2013-11-20,57.8,46.4,37.0,46.9,40.9,34.9,94,82,65,30.37,30.24,3,1,9,0.00
2013-11-21,72.0,55.4,44.5,60.4,51.2,42.2,97,87,67,30.41,30.32,3,0,6,0.00
2013-11-22,74.8,61.7,54.1,65.4,58.8,53.3,98,91,68,30.33,30.09,3,0,5,0.00
2013-11-23,63.6,60.2,45.7,62.5,57.3,41.4,97,91,76,30.08,29.98,2,0,4,0.03
2013-11-24,45.7,36.6,23.4,38.6,22.1,11.0,87,58,30,30.53,30.09,5,2,5,0.00
2013-11-25,46.3,31.4,22.0,30.2,20.3,12.6,89,67,29,30.58,30.34,3,0,4,0.00
2013-11-26,69.2,53.2,33.0,68.3,51.6,30.0,97,94,88,30.33,29.63,8,2,9,1.53
2013-11-27,70.4,53.0,33.1,69.2,51.3,29.1,97,94,84,30.12,29.42,8,3,13,1.11
2013-11-28,45.8,33.4,25.5,32.4,26.8,23.8,95,79,46,30.48,30.14,3,0,6,0.01
2013-11-29,53.8,37.7,26.8,35.8,30.7,25.6,97,79,44,30.57,30.46,2,0,4,0.00
2013-11-30,56.6,43.0,31.3,45.3,37.5,28.7,92,82,63,30.55,30.31,3,1,4,0.00
2013-12-1,58.8,48.2,42.0,51.6,45.0,40.1,97,89,76,30.31,29.99,1,0,4,0.00
2013-12-2,56.6,47.8,37.1,49.9,45.2,35.8,97,91,73,29.98,29.80,2,0,3,0.00
2013-12-3,62.0,47.2,32.8,51.3,43.2,31.8,98,87,59,30.00,29.85,2,0,3,0.00
2013-12-4,67.0,57.8,51.5,65.2,56.7,49.8,98,96,89,30.10,29.98,1,0,2,0.26
2013-12-5,75.4,61.7,51.4,67.1,59.1,50.6,99,92,70,30.15,30.06,2,0,3,0.01
2013-12-6,77.6,70.4,64.1,70.2,67.2,63.2,97,90,74,30.14,30.03,4,2,7,0.00
2013-12-7,69.4,55.3,42.9,67.6,53.6,41.6,96,94,81,30.39,30.05,4,2,5,0.35
2013-12-8,43.3,41.2,39.8,42.2,40.0,38.8,97,96,95,30.38,30.25,2,1,5,0.15
2013-12-9,67.1,52.6,40.9,65.3,51.6,40.1,98,97,92,30.25,30.06,2,0,2,0.00
2013-12-10,73.1,56.7,37.6,68.0,55.2,36.6,99,95,84,30.31,29.84,5,1,6,0.23
2013-12-11,50.5,38.9,27.4,37.0,32.0,26.2,96,79,45,30.45,30.28,2,0,4,0.01
2013-12-12,48.6,35.8,26.3,33.4,29.1,24.8,97,80,47,30.37,30.24,5,1,10,0.00
2013-12-13,53.1,35.5,22.9,34.4,27.8,21.4,96,78,36,30.42,30.28,2,0,3,0.00
2013-12-14,66.8,52.6,34.3,64.8,50.1,33.0,97,92,74,30.29,29.75,9,2,9,0.95
2013-12-15,62.9,52.6,36.5,62.3,50.7,35.5,98,93,79,30.06,29.69,4,1,4,0.13
2013-12-16,56.7,40.1,29.9,44.1,36.0,28.9,97,87,56,30.19,30.06,2,0,3,0.00
2013-12-17,62.6,48.2,33.9,45.6,41.1,33.1,98,79,52,30.16,29.96,3,1,7,0.00
2013-12-18,52.6,40.5,28.6,39.6,32.5,27.1,95,76,39,30.30,29.98,4,1,4,0.00
2013-12-19,61.6,41.0,26.7,44.3,33.8,25.5,97,80,39,30.35,30.25,2,0,4,0.01
2013-12-20,71.7,52.1,34.3,63.2,48.7,33.0,98,90,66,30.25,30.14,2,0,2,0.00
2013-12-21,76.2,61.3,47.8,68.1,58.7,47.3,98,92,75,30.17,30.08,3,1,4,0.00
2013-12-22,79.7,70.3,63.4,71.1,67.1,62.8,98,90,72,30.12,30.06,5,2,7,0.01
2013-12-23,73.6,69.3,57.0,70.3,67.1,55.9,96,93,86,30.11,30.00,4,2,9,0.33
2013-12-24,55.7,45.6,31.8,54.6,42.0,30.4,97,88,68,30.39,30.02,4,1,7,0.24
2013-12-25,44.9,35.9,27.6,32.0,26.9,21.5,91,70,52,30.51,30.36,3,1,4,0.00
2013-12-26,43.4,39.1,31.8,41.9,37.1,29.7,96,93,87,30.34,30.23,1,0,4,0.09
2013-12-27,53.6,39.8,29.4,38.3,34.0,28.1,96,82,46,30.40,30.31,3,0,3,0.00
2013-12-28,61.6,42.1,25.7,50.1,36.6,24.5,97,83,45,30.40,30.14,1,0,2,0.01
2013-12-29,69.7,61.3,48.6,67.1,59.0,46.4,96,92,86,30.11,29.71,8,3,11,0.49
2013-12-30,57.4,47.4,39.9,49.7,44.7,39.1,100,91,66,30.11,29.92,2,0,3,0.00
2013-12-31,54.6,42.9,34.1,44.1,39.3,32.8,97,88,51,30.35,30.08,3,0,10,0.00
2014-1-1,53.5,41.6,30.3,44.5,37.7,29.0,97,87,56,30.40,30.15,1,0,2,0.04
2014-1-2,52.0,48.8,44.9,51.2,48.0,43.6,98,97,95,30.13,29.56,4,0,9,0.76